Time;durP1;ratioP1;P1;durP2;ratioP2;P2;SDS_P1;SDS_P2;PMS_P1;PMS_P2;Temp;Humidity;BMP_temperature;BMP_pressure;BME280_temperature;BME280_humidity;BME280_pressure;Samples;Min_cycle;Max_cycle;Signal;HPM_P1;HPM_P2
2021/12/03 00:03:31;;;;;;;79.68;69.18;;;24.20;45.10;;;;;;4816972;54;21012;-29
2021/12/03 00:08:32;;;;;;;81.45;67.82;;;24.20;45.10;;;;;;4795237;58;20996;-24
2021/12/03 00:13:33;;;;;;;80.72;67.15;;;24.30;45.00;;;;;;4812558;54;21541;-29
2021/12/03 00:18:34;;;;;;;78.00;66.60;;;24.20;45.00;;;;;;4808077;54;21059;-23
2021/12/03 00:23:36;;;;;;;76.12;64.57;;;24.20;45.00;;;;;;4795350;54;21031;-25
2021/12/03 00:28:38;;;;;;;73.97;62.78;;;24.20;45.00;;;;;;4801183;54;21065;-27
2021/12/03 00:33:39;;;;;;;74.15;62.30;;;24.20;45.00;;;;;;4796466;54;20992;-24
2021/12/03 00:38:45;;;;;;;74.87;63.17;;;24.20;44.90;;;;;;4804440;54;21016;-26
2021/12/03 00:43:47;;;;;;;71.57;62.28;;;24.20;44.90;;;;;;4836741;54;21501;-28
2021/12/03 00:48:51;;;;;;;71.12;60.80;;;24.20;44.80;;;;;;4795947;58;21469;-28
2021/12/03 00:53:52;;;;;;;71.45;61.95;;;24.20;44.80;;;;;;4795083;58;21007;-29
2021/12/03 00:58:53;;;;;;;76.12;61.47;;;24.20;44.80;;;;;;4795287;55;20992;-21
2021/12/03 01:03:54;;;;;;;67.68;57.58;;;24.20;44.70;;;;;;4836529;54;21012;-27
2021/12/03 01:08:54;;;;;;;73.32;60.30;;;24.20;44.70;;;;;;4798194;54;21545;-28
2021/12/03 01:14:00;;;;;;;71.47;60.33;;;24.20;44.80;;;;;;4801188;54;21052;-26
2021/12/03 01:19:02;;;;;;;68.62;58.70;;;24.20;44.70;;;;;;4795524;58;21103;-28
2021/12/03 01:24:03;;;;;;;67.43;58.10;;;24.20;44.70;;;;;;4807193;54;21011;-27
2021/12/03 01:29:04;;;;;;;67.57;57.28;;;24.20;44.70;;;;;;4796746;54;21136;-26
2021/12/03 01:34:05;;;;;;;65.65;56.55;;;24.20;44.80;;;;;;4806605;54;20992;-26
2021/12/03 01:39:07;;;;;;;64.05;53.40;;;24.30;44.70;;;;;;4801408;54;21016;-26
2021/12/03 01:44:09;;;;;;;64.00;55.25;;;24.20;44.60;;;;;;4802553;54;21565;-26
2021/12/03 01:49:12;;;;;;;61.88;53.63;;;24.30;44.60;;;;;;4804988;54;21548;-29
2021/12/03 01:54:13;;;;;;;61.50;52.85;;;24.20;44.60;;;;;;4821554;54;21470;-30
2021/12/03 01:59:14;;;;;;;60.67;52.65;;;24.20;45.20;;;;;;4798789;54;21008;-23
2021/12/03 02:04:15;;;;;;;60.65;51.97;;;24.20;44.60;;;;;;4800286;54;21059;-26
2021/12/03 02:09:16;;;;;;;59.38;50.88;;;24.20;44.60;;;;;;4794713;58;21084;-28
2021/12/03 02:14:17;;;;;;;58.10;50.65;;;24.20;44.60;;;;;;4799590;54;21078;-26
2021/12/03 02:19:18;;;;;;;56.40;49.55;;;24.20;44.50;;;;;;4800645;54;21004;-26
2021/12/03 02:24:21;;;;;;;55.53;48.70;;;24.20;44.60;;;;;;4796673;54;21043;-27
2021/12/03 02:29:22;;;;;;;56.08;48.17;;;24.20;44.50;;;;;;4794796;58;21511;-24
2021/12/03 02:34:23;;;;;;;55.65;47.97;;;24.20;44.60;;;;;;4798153;54;21048;-27
2021/12/03 02:39:24;;;;;;;53.70;46.40;;;24.20;44.50;;;;;;4797133;54;21065;-29
2021/12/03 02:44:25;;;;;;;54.13;47.45;;;24.20;44.60;;;;;;4797662;54;21474;-27
2021/12/03 02:49:26;;;;;;;54.60;47.17;;;24.20;44.50;;;;;;4819278;54;21307;-23
2021/12/03 02:54:27;;;;;;;51.90;45.08;;;24.20;44.50;;;;;;4820477;54;21039;-26
2021/12/03 02:59:27;;;;;;;53.60;45.35;;;24.20;44.50;;;;;;4839453;54;21513;-25
2021/12/03 03:04:29;;;;;;;50.33;44.40;;;24.20;44.50;;;;;;4800501;54;21059;-22
2021/12/03 03:09:31;;;;;;;50.10;43.78;;;24.20;44.50;;;;;;4795689;54;21394;-24
2021/12/03 03:14:32;;;;;;;48.85;42.35;;;24.20;44.40;;;;;;4798234;54;21549;-20
2021/12/03 03:19:34;;;;;;;49.70;43.78;;;24.20;44.40;;;;;;4798461;54;21127;-28
2021/12/03 03:24:35;;;;;;;49.58;43.70;;;24.20;44.40;;;;;;4795519;58;21008;-22
2021/12/03 03:29:36;;;;;;;46.55;41.45;;;24.20;44.40;;;;;;4809513;54;21034;-21
2021/12/03 03:34:40;;;;;;;45.25;39.50;;;24.20;44.40;;;;;;4797741;54;20996;-26
2021/12/03 03:39:43;;;;;;;45.67;40.58;;;24.20;44.20;;;;;;4812954;54;21104;-25
2021/12/03 03:44:44;;;;;;;44.63;38.83;;;24.30;44.20;;;;;;4800010;54;20992;-25
2021/12/03 03:49:45;;;;;;;43.28;38.58;;;24.30;44.10;;;;;;4816598;54;21079;-28
2021/12/03 03:54:47;;;;;;;44.97;39.83;;;24.30;44.10;;;;;;4853931;54;21016;-23
2021/12/03 03:59:48;;;;;;;44.47;38.35;;;24.40;44.70;;;;;;4800754;54;21056;-25
2021/12/03 04:04:49;;;;;;;42.22;37.35;;;24.40;43.90;;;;;;4795236;58;20992;-27
2021/12/03 04:09:50;;;;;;;42.83;38.00;;;24.40;43.80;;;;;;4809509;54;21532;-26
2021/12/03 04:14:51;;;;;;;41.40;36.90;;;24.40;43.80;;;;;;4795348;55;21130;-24
2021/12/03 04:19:52;;;;;;;40.40;36.10;;;24.40;43.80;;;;;;4798275;54;21031;-27
2021/12/03 04:24:55;;;;;;;38.70;34.55;;;24.40;43.70;;;;;;4810929;54;20988;-25
2021/12/03 04:29:57;;;;;;;38.47;34.45;;;24.40;43.70;;;;;;4819708;54;21052;-20
2021/12/03 04:34:57;;;;;;;39.75;34.90;;;24.40;43.60;;;;;;4795339;58;21000;-26
2021/12/03 04:39:58;;;;;;;37.75;33.70;;;24.40;43.60;;;;;;4806595;54;21498;-26
2021/12/03 04:44:59;;;;;;;35.40;31.58;;;24.40;43.60;;;;;;4815457;54;20988;-25
2021/12/03 04:50:01;;;;;;;36.40;32.42;;;24.40;43.60;;;;;;4820098;54;21008;-20
2021/12/03 04:55:03;;;;;;;36.55;32.58;;;24.50;43.60;;;;;;4794955;58;21003;-24
2021/12/03 05:00:07;;;;;;;35.70;30.88;;;24.50;43.50;;;;;;4805878;54;21142;-24
2021/12/03 05:05:08;;;;;;;36.63;31.42;;;24.40;43.50;;;;;;4809343;54;21031;-27
2021/12/03 05:10:10;;;;;;;34.50;30.42;;;24.40;43.50;;;;;;4799571;54;21060;-26
2021/12/03 05:15:11;;;;;;;34.90;30.33;;;24.40;43.40;;;;;;4829392;54;21055;-21
2021/12/03 05:20:12;;;;;;;33.58;29.92;;;24.40;43.40;;;;;;4802962;54;21071;-22
2021/12/03 05:25:14;;;;;;;33.38;29.77;;;24.40;43.40;;;;;;4796286;54;21509;-25
2021/12/03 05:30:14;;;;;;;34.20;30.48;;;24.50;43.50;;;;;;4804211;54;21016;-24
2021/12/03 05:35:15;;;;;;;32.13;28.62;;;24.50;43.50;;;;;;4808648;54;20984;-27
2021/12/03 05:40:17;;;;;;;31.75;28.02;;;24.40;43.40;;;;;;4798446;54;21118;-25
2021/12/03 05:45:24;;;;;;;31.00;27.00;;;24.50;43.50;;;;;;4808257;54;21052;-25
2021/12/03 05:50:25;;;;;;;30.67;27.37;;;24.40;43.50;;;;;;4797320;54;21072;-22
2021/12/03 05:55:26;;;;;;;30.58;27.20;;;24.50;43.80;;;;;;4814562;54;21008;-24
2021/12/03 06:00:32;;;;;;;30.37;26.98;;;24.50;43.40;;;;;;4854049;54;21000;-27
2021/12/03 06:05:35;;;;;;;29.48;26.27;;;24.50;43.40;;;;;;4822108;54;21079;-25
2021/12/03 06:10:37;;;;;;;30.92;26.62;;;24.50;43.40;;;;;;4813143;54;21584;-27
2021/12/03 06:15:38;;;;;;;28.17;25.05;;;24.40;43.40;;;;;;4795480;58;21039;-26
2021/12/03 06:20:39;;;;;;;27.95;24.55;;;24.50;43.30;;;;;;4811050;54;21119;-28
2021/12/03 06:25:40;;;;;;;29.23;25.35;;;24.50;43.30;;;;;;4838381;54;21045;-28
2021/12/03 06:30:41;;;;;;;28.67;25.52;;;24.50;43.30;;;;;;4800968;54;22015;-28
2021/12/03 06:35:42;;;;;;;26.67;23.83;;;24.50;43.20;;;;;;4811458;54;21011;-27
2021/12/03 06:40:44;;;;;;;28.60;25.50;;;24.40;43.20;;;;;;4799305;54;21032;-23
2021/12/03 06:45:46;;;;;;;27.02;24.05;;;24.50;43.20;;;;;;4798964;54;21024;-28
2021/12/03 06:50:49;;;;;;;27.70;24.67;;;24.40;43.10;;;;;;4816421;54;21134;-27
2021/12/03 06:56:10;;;;;;;28.10;24.33;;;24.50;43.10;;;;;;4814728;54;21534;-28
2021/12/03 07:01:11;;;;;;;29.67;26.45;;;24.50;43.10;;;;;;4827059;54;21513;-26
2021/12/03 07:06:11;;;;;;;29.67;25.15;;;24.50;43.10;;;;;;4798702;54;21000;-24
2021/12/03 07:11:12;;;;;;;29.23;25.37;;;24.40;43.00;;;;;;4813395;54;21525;-25
2021/12/03 07:16:13;;;;;;;28.35;24.60;;;24.40;43.10;;;;;;4809602;54;21016;-23
2021/12/03 07:21:14;;;;;;;28.27;25.05;;;24.50;43.00;;;;;;4797124;54;20992;-27
2021/12/03 07:26:15;;;;;;;28.77;25.20;;;24.50;43.00;;;;;;4814994;54;21008;-25
2021/12/03 07:31:16;;;;;;;28.83;25.35;;;24.50;42.90;;;;;;4804790;54;21092;-25
2021/12/03 07:36:17;;;;;;;31.00;26.77;;;24.50;43.00;;;;;;4794779;58;21068;-26
2021/12/03 07:41:21;;;;;;;30.92;26.98;;;24.50;43.00;;;;;;4794465;54;21052;-25
2021/12/03 07:46:22;;;;;;;29.75;26.20;;;24.50;42.90;;;;;;4807594;54;21542;-28
2021/12/03 07:51:23;;;;;;;29.58;26.35;;;24.50;42.90;;;;;;4815364;54;21103;-24
2021/12/03 07:56:24;;;;;;;31.85;27.65;;;24.50;42.90;;;;;;4794692;58;21112;-23
2021/12/03 08:01:24;;;;;;;31.65;27.45;;;24.50;43.60;;;;;;4804522;54;21004;-26
2021/12/03 08:06:25;;;;;;;33.50;28.50;;;24.40;42.90;;;;;;4804466;54;21040;-26
2021/12/03 08:11:26;;;;;;;32.65;27.67;;;24.50;42.90;;;;;;4824222;54;21091;-24
2021/12/03 08:16:27;;;;;;;32.53;28.67;;;24.40;42.90;;;;;;4803338;54;21008;-27
2021/12/03 08:21:29;;;;;;;33.42;29.15;;;24.50;42.90;;;;;;4826293;54;21076;-25
2021/12/03 08:26:32;;;;;;;34.40;30.48;;;24.40;42.80;;;;;;4869463;54;21450;-24
2021/12/03 08:31:33;;;;;;;36.75;31.45;;;24.50;42.90;;;;;;4827789;54;21012;-28
2021/12/03 08:36:35;;;;;;;36.53;31.20;;;24.50;42.80;;;;;;4839252;54;21008;-27
2021/12/03 08:41:36;;;;;;;36.95;32.33;;;24.50;42.80;;;;;;4815299;54;21004;-27
2021/12/03 08:46:38;;;;;;;38.63;33.25;;;24.50;42.70;;;;;;4852591;54;21015;-26
2021/12/03 08:58:13;;;;;;;38.17;33.88;;;24.50;42.70;;;;;;4816450;54;21087;-31
2021/12/03 09:03:13;;;;;;;42.22;34.80;;;24.50;42.70;;;;;;4802597;54;21513;-28
2021/12/03 09:08:14;;;;;;;46.25;38.10;;;24.50;42.60;;;;;;4820458;54;21183;-26
2021/12/03 09:13:15;;;;;;;44.45;37.33;;;24.50;42.60;;;;;;4805748;54;21004;-27
2021/12/03 09:18:37;;;;;;;44.35;38.03;;;24.50;42.50;;;;;;4795103;58;21063;-28
2021/12/03 09:24:07;;;;;;;49.42;41.22;;;24.50;42.50;;;;;;4798199;54;21474;-27
2021/12/03 09:29:12;;;;;;;50.70;41.03;;;24.50;42.50;;;;;;4802820;54;21485;-26
2021/12/03 09:34:16;;;;;;;51.13;42.53;;;24.60;42.40;;;;;;4794814;58;21506;-26
2021/12/03 09:39:22;;;;;;;52.17;43.80;;;24.60;42.30;;;;;;4794738;55;21514;-25
2021/12/03 09:44:26;;;;;;;55.72;46.17;;;24.70;42.20;;;;;;4805742;54;21564;-26
2021/12/03 09:49:33;;;;;;;57.80;47.03;;;24.70;42.10;;;;;;4826792;54;21525;-26
2021/12/03 09:54:56;;;;;;;59.92;49.65;;;24.80;42.00;;;;;;4798172;54;21009;-26
2021/12/03 10:00:16;;;;;;;62.33;49.53;;;24.80;42.00;;;;;;4811287;54;22128;-24
2021/12/03 10:13:20;;;;;;;68.15;54.53;;;24.90;43.00;;;;;;4801744;54;21621;-28
2021/12/03 10:18:48;;;;;;;73.55;58.22;;;24.80;43.00;;;;;;4829956;54;21584;-25
2021/12/03 10:24:29;;;;;;;73.40;57.95;;;24.70;43.10;;;;;;4811892;54;21497;-29
2021/12/03 10:37:50;;;;;;;78.90;63.28;;;24.50;43.40;;;;;;4807729;54;21581;-27
2021/12/03 10:43:35;;;;;;;84.00;68.40;;;24.40;43.50;;;;;;4819718;54;21550;-26
2021/12/03 12:39:43;;;;;;;149.48;115.43;;;24.00;45.20;;;;;;4817220;54;21052;-25
2021/12/03 12:45:15;;;;;;;148.23;115.70;;;24.00;45.30;;;;;;4794925;55;21016;-26
2021/12/03 12:56:46;;;;;;;146.62;116.10;;;24.00;45.60;;;;;;4794707;54;21051;-26
2021/12/03 14:44:55;;;;;;;166.50;128.18;;;23.90;46.10;;;;;;4822004;54;21035;-24
2021/12/03 14:57:51;;;;;;;165.75;126.93;;;23.90;46.20;;;;;;4819982;54;21044;-25
2021/12/03 15:23:20;;;;;;;180.40;136.77;;;23.90;46.30;;;;;;4801876;54;21166;-27
2021/12/03 15:28:45;;;;;;;174.18;137.02;;;23.80;46.60;;;;;;4817978;54;21008;-25
2021/12/03 15:34:17;;;;;;;175.27;138.27;;;23.80;46.60;;;;;;4798731;54;21550;-24
2021/12/03 15:56:58;;;;;;;184.82;139.65;;;23.60;46.50;;;;;;4795000;54;21087;-26
2021/12/03 16:43:33;;;;;;;186.55;143.35;;;23.50;46.50;;;;;;4829603;54;21032;-24
2021/12/03 16:54:49;;;;;;;189.07;146.25;;;23.40;46.50;;;;;;4794725;58;21040;-28
2021/12/03 16:59:52;;;;;;;182.55;144.35;;;23.40;46.50;;;;;;4809887;54;21103;-28
2021/12/03 17:05:09;;;;;;;186.48;145.30;;;23.40;46.40;;;;;;4796611;54;21627;-23
2021/12/03 17:17:34;;;;;;;187.73;147.18;;;23.30;46.40;;;;;;4806539;54;21035;-27
2021/12/03 17:54:02;;;;;;;194.25;153.85;;;23.20;46.50;;;;;;4793787;54;21565;-27
2021/12/03 17:59:41;;;;;;;200.35;155.93;;;23.20;46.40;;;;;;4817316;54;22317;-31
2021/12/03 18:05:01;;;;;;;194.35;151.07;;;23.20;46.50;;;;;;4798848;54;21594;-27
2021/12/03 18:10:25;;;;;;;198.30;155.57;;;23.20;46.50;;;;;;4818661;54;21585;-27
2021/12/03 18:47:46;;;;;;;205.98;156.87;;;23.10;46.40;;;;;;4808490;54;21019;-22
2021/12/03 18:52:59;;;;;;;199.73;159.35;;;23.10;46.40;;;;;;4795383;54;21601;-24
2021/12/03 18:58:04;;;;;;;194.05;153.38;;;23.10;46.40;;;;;;4840641;54;21609;-26
2021/12/03 19:03:17;;;;;;;202.50;159.35;;;23.10;46.30;;;;;;4807429;54;21525;-23
2021/12/03 19:08:31;;;;;;;211.77;163.05;;;23.10;46.30;;;;;;4802731;54;21481;-26
2021/12/03 19:13:37;;;;;;;206.02;160.73;;;23.10;46.40;;;;;;4807520;54;21132;-25
2021/12/03 19:18:43;;;;;;;204.63;162.37;;;23.10;46.40;;;;;;4852785;54;21501;-28
2021/12/03 19:23:45;;;;;;;200.62;158.60;;;23.10;46.40;;;;;;4836850;54;21585;-22
2021/12/03 19:28:47;;;;;;;205.35;163.90;;;23.00;46.30;;;;;;4819120;54;21101;-29
2021/12/03 19:33:48;;;;;;;206.55;162.90;;;23.00;46.30;;;;;;4868095;54;21569;-25
2021/12/03 19:38:51;;;;;;;206.95;165.05;;;23.00;46.30;;;;;;4831352;54;21104;-22
2021/12/03 19:43:54;;;;;;;204.52;158.85;;;23.00;46.20;;;;;;4814799;54;21072;-23
2021/12/03 19:57:06;;;;;;;201.15;156.80;;;23.00;46.20;;;;;;4831454;54;21072;-27
2021/12/03 20:02:07;;;;;;;216.38;164.68;;;23.00;46.20;;;;;;4795030;54;21428;-25
2021/12/03 20:07:08;;;;;;;206.60;163.60;;;23.00;46.20;;;;;;4848004;54;22284;-25
2021/12/03 20:12:16;;;;;;;206.35;160.27;;;23.00;46.20;;;;;;4801188;54;21082;-28
2021/12/03 20:17:30;;;;;;;211.30;164.60;;;22.90;46.10;;;;;;4802263;54;21462;-25
2021/12/03 20:32:39;;;;;;;210.20;167.48;;;22.90;46.20;;;;;;4837818;54;21171;-27
2021/12/03 20:37:42;;;;;;;205.77;164.80;;;22.90;46.10;;;;;;4794761;58;21542;-24
2021/12/03 20:43:06;;;;;;;208.98;164.75;;;22.90;46.00;;;;;;4833633;54;21015;-26
2021/12/03 21:11:46;;;;;;;210.60;166.95;;;22.90;46.00;;;;;;4794234;54;21521;-25
2021/12/03 21:17:00;;;;;;;208.15;162.80;;;22.90;45.90;;;;;;4812505;54;21458;-21
2021/12/03 21:22:12;;;;;;;208.87;163.75;;;22.90;45.90;;;;;;4808295;54;21174;-25
2021/12/03 21:27:30;;;;;;;203.32;157.18;;;22.80;45.80;;;;;;4809887;54;21562;-26
2021/12/03 21:32:59;;;;;;;210.05;162.52;;;22.80;45.80;;;;;;4806849;54;21577;-25
2021/12/03 21:44:32;;;;;;;206.90;162.12;;;22.80;45.70;;;;;;4797771;54;21036;-27
2021/12/03 21:49:33;;;;;;;208.87;161.62;;;22.80;45.80;;;;;;4796161;54;21015;-25
2021/12/03 21:54:34;;;;;;;208.10;161.65;;;22.80;45.70;;;;;;4794574;55;21016;-27
2021/12/03 21:59:37;;;;;;;205.23;157.70;;;22.80;45.70;;;;;;4795247;58;21040;-28
2021/12/03 22:04:41;;;;;;;208.38;159.77;;;22.80;45.70;;;;;;4800150;54;21480;-27
2021/12/03 22:09:42;;;;;;;210.93;160.00;;;22.80;45.70;;;;;;4832081;54;21016;-27
2021/12/03 22:14:43;;;;;;;200.23;157.12;;;22.80;45.60;;;;;;4820689;54;21573;-27
2021/12/03 22:19:44;;;;;;;203.93;159.00;;;22.80;45.60;;;;;;4814792;54;21249;-22
2021/12/03 22:24:44;;;;;;;198.05;153.85;;;22.80;45.70;;;;;;4817384;54;21020;-26
2021/12/03 22:29:45;;;;;;;205.23;159.15;;;22.80;45.60;;;;;;4824890;54;21016;-24
2021/12/03 22:34:46;;;;;;;200.60;154.35;;;22.80;45.50;;;;;;4809271;54;21482;-25
2021/12/03 22:39:47;;;;;;;198.77;150.05;;;22.80;45.50;;;;;;4804657;54;21514;-24
2021/12/03 22:44:48;;;;;;;206.73;158.07;;;22.70;45.60;;;;;;4812115;54;21007;-26
2021/12/03 22:50:15;;;;;;;193.95;152.15;;;22.80;45.50;;;;;;4820231;54;21011;-37
2021/12/03 22:55:16;;;;;;;197.43;150.73;;;22.70;45.40;;;;;;4802599;54;21478;-25
2021/12/03 23:01:50;;;;;;;197.65;152.68;;;22.70;45.40;;;;;;4806156;54;21545;-25
2021/12/03 23:06:51;;;;;;;195.18;151.40;;;22.70;45.40;;;;;;4801378;54;21055;-24
2021/12/03 23:11:52;;;;;;;192.27;148.50;;;22.70;45.30;;;;;;4824576;54;21580;-25
2021/12/03 23:16:53;;;;;;;193.18;148.30;;;22.70;45.30;;;;;;4794567;58;21970;-22
2021/12/03 23:21:54;;;;;;;191.52;149.27;;;22.70;45.30;;;;;;4795272;55;21032;-26
2021/12/03 23:26:55;;;;;;;186.77;145.23;;;22.70;45.20;;;;;;4794204;58;21050;-20
2021/12/03 23:31:59;;;;;;;181.98;143.20;;;22.70;45.20;;;;;;4799767;54;21542;-24
2021/12/03 23:37:02;;;;;;;185.37;144.07;;;22.70;45.80;;;;;;4795580;54;21498;-26
2021/12/03 23:42:03;;;;;;;187.15;143.50;;;22.70;45.10;;;;;;4806384;54;21470;-20
2021/12/03 23:47:04;;;;;;;184.18;143.87;;;22.70;45.10;;;;;;4805145;54;21042;-24
2021/12/03 23:52:06;;;;;;;184.45;142.30;;;22.70;45.00;;;;;;4817266;54;20980;-25
2021/12/03 23:57:08;;;;;;;181.35;138.95;;;22.70;45.00;;;;;;4795301;58;21485;-23
